createdAt,value
2019-02-04T00:00:29.801Z,14.10
2019-02-04T00:01:29.815Z,12.00
2019-02-04T00:02:29.824Z,14.30
2019-02-04T00:03:29.822Z,14.00
2019-02-04T00:04:30.624Z,16.20
2019-02-04T00:05:29.839Z,13.40
2019-02-04T00:06:29.846Z,13.60
2019-02-04T00:07:29.861Z,16.80
2019-02-04T00:08:29.870Z,15.30
2019-02-04T00:09:29.882Z,15.60
2019-02-04T00:10:29.878Z,15.70
2019-02-04T00:11:29.889Z,15.10
2019-02-04T00:12:29.899Z,16.00
2019-02-04T00:13:29.918Z,14.00
2019-02-04T00:14:29.917Z,15.00
2019-02-04T00:15:29.932Z,13.60
2019-02-04T00:16:40.362Z,15.90
2019-02-04T00:17:29.938Z,15.80
2019-02-04T00:18:29.947Z,14.90
2019-02-04T00:19:29.968Z,16.00
2019-02-04T00:20:29.972Z,16.40
2019-02-04T00:21:29.990Z,16.20
2019-02-04T00:22:29.985Z,16.30
2019-02-04T00:23:29.988Z,14.30
2019-02-04T00:24:30.007Z,18.00
2019-02-04T00:25:30.011Z,16.20
2019-02-04T00:26:30.068Z,16.60
2019-02-04T00:27:30.027Z,18.90
2019-02-04T00:28:30.078Z,17.80
2019-02-04T00:29:30.042Z,15.20
2019-02-04T00:30:30.056Z,17.10
2019-02-04T00:31:30.058Z,17.90
2019-02-04T00:32:30.070Z,15.80
2019-02-04T00:33:30.075Z,16.30
2019-02-04T00:34:30.082Z,18.60
2019-02-04T00:35:30.090Z,18.60
2019-02-04T00:36:30.100Z,20.40
2019-02-04T00:37:30.106Z,17.30
2019-02-04T00:38:30.113Z,18.60
2019-02-04T00:39:30.124Z,19.70
2019-02-04T00:40:30.133Z,17.70
2019-02-04T00:41:30.142Z,19.20
2019-02-04T00:42:30.160Z,18.40
2019-02-04T00:43:30.157Z,15.80
2019-02-04T00:44:30.167Z,16.90
2019-02-04T00:45:30.181Z,20.00
2019-02-04T00:46:30.186Z,18.30
2019-02-04T00:47:30.192Z,17.00
2019-02-04T00:48:30.203Z,16.80
2019-02-04T00:49:30.209Z,16.60
2019-02-04T00:50:30.217Z,17.20
2019-02-04T00:51:30.224Z,17.30
2019-02-04T00:52:30.231Z,19.00
2019-02-04T00:53:30.242Z,17.30
2019-02-04T00:54:30.248Z,16.80
2019-02-04T00:55:30.256Z,18.00
2019-02-04T00:56:30.277Z,17.50
2019-02-04T00:57:30.296Z,16.60
2019-02-04T00:58:31.461Z,21.50
2019-02-04T00:59:30.345Z,17.20
2019-02-04T01:00:30.326Z,17.60
2019-02-04T01:01:30.309Z,18.60
2019-02-04T01:02:30.321Z,16.60
2019-02-04T01:03:30.324Z,18.10
2019-02-04T01:04:30.330Z,18.60
2019-02-04T01:05:30.342Z,16.30
2019-02-04T01:06:30.348Z,16.30
2019-02-04T01:07:30.361Z,20.20
2019-02-04T01:08:30.367Z,18.20
2019-02-04T01:09:30.372Z,19.20
2019-02-04T01:10:30.396Z,18.30
2019-02-04T01:11:30.393Z,16.30
2019-02-04T01:12:30.402Z,19.00
2019-02-04T01:13:30.415Z,20.40
2019-02-04T01:14:30.417Z,18.20
2019-02-04T01:15:30.423Z,19.60
2019-02-04T01:16:30.435Z,19.40
2019-02-04T01:17:30.442Z,19.20
2019-02-04T01:18:30.454Z,22.30
2019-02-04T01:19:30.461Z,20.00
2019-02-04T01:20:30.473Z,17.60
2019-02-04T01:21:30.479Z,18.00
2019-02-04T01:22:30.485Z,19.50
2019-02-04T01:23:30.491Z,22.10
2019-02-04T01:24:30.507Z,20.40
2019-02-04T01:25:30.508Z,19.20
2019-02-04T01:26:30.934Z,17.40
2019-02-04T01:27:30.523Z,19.30
2019-02-04T01:28:30.538Z,18.50
2019-02-04T01:29:30.617Z,19.00
2019-02-04T01:30:30.571Z,16.20
2019-02-04T01:31:30.566Z,20.20
2019-02-04T01:32:30.566Z,21.20
2019-02-04T01:33:30.575Z,22.40
2019-02-04T01:34:30.582Z,21.60
2019-02-04T01:35:30.590Z,18.70
2019-02-04T01:36:30.602Z,19.60
2019-02-04T01:37:30.617Z,19.50
2019-02-04T01:38:30.621Z,20.00
2019-02-04T01:39:30.626Z,21.10
2019-02-04T01:40:30.634Z,18.50
2019-02-04T01:41:33.200Z,22.20
2019-02-04T01:42:30.650Z,17.80
2019-02-04T01:43:30.656Z,19.40
2019-02-04T01:44:30.671Z,19.40
2019-02-04T01:45:30.677Z,22.70
2019-02-04T01:46:30.683Z,21.80
2019-02-04T01:47:30.689Z,20.80
2019-02-04T01:48:30.698Z,21.70
2019-02-04T01:49:30.707Z,20.40
2019-02-04T01:50:30.714Z,21.50
2019-02-04T01:51:30.727Z,21.30
2019-02-04T01:52:30.765Z,21.10
2019-02-04T01:53:30.740Z,21.00
2019-02-04T01:54:30.749Z,21.50
2019-02-04T01:55:30.809Z,21.00
2019-02-04T01:56:30.768Z,20.40
2019-02-04T01:57:31.094Z,18.90
2019-02-04T01:58:30.789Z,20.60
2019-02-04T01:59:30.790Z,23.60
2019-02-04T02:00:30.920Z,21.50
2019-02-04T02:01:30.805Z,20.50
2019-02-04T02:02:30.816Z,23.20
2019-02-04T02:03:30.822Z,19.70
2019-02-04T02:04:30.830Z,22.40
2019-02-04T02:05:30.839Z,21.80
2019-02-04T02:06:30.846Z,20.10
2019-02-04T02:07:30.856Z,22.60
2019-02-04T02:08:30.868Z,22.00
2019-02-04T02:09:30.875Z,21.20
2019-02-04T02:10:30.889Z,23.20
2019-02-04T02:11:30.891Z,22.80
2019-02-04T02:12:30.895Z,25.90
2019-02-04T02:13:30.946Z,22.90
2019-02-04T02:14:30.912Z,22.10
2019-02-04T02:15:30.919Z,21.20
2019-02-04T02:16:30.937Z,24.10
2019-02-04T02:17:30.935Z,23.00
2019-02-04T02:18:30.945Z,21.30
2019-02-04T02:19:31.001Z,23.10
2019-02-04T02:20:31.641Z,21.50
2019-02-04T02:21:30.968Z,21.80
2019-02-04T02:22:30.983Z,22.90
2019-02-04T02:23:30.985Z,25.70
2019-02-04T02:24:30.999Z,23.60
2019-02-04T02:25:31.008Z,23.90
2019-02-04T02:26:31.030Z,26.50
2019-02-04T02:27:31.440Z,22.20
2019-02-04T02:28:31.347Z,20.60
2019-02-04T02:30:31.244Z,24.00
2019-02-04T02:31:31.094Z,25.70
2019-02-04T02:32:31.067Z,23.80
2019-02-04T02:33:31.069Z,27.10
2019-02-04T02:34:31.077Z,23.70
2019-02-04T02:35:31.086Z,24.30
2019-02-04T02:36:31.193Z,26.90
2019-02-04T02:37:31.100Z,25.50
2019-02-04T02:38:31.137Z,26.90
2019-02-04T02:39:31.115Z,26.00
2019-02-04T02:40:31.122Z,26.70
2019-02-04T02:41:31.134Z,25.60
2019-02-04T02:42:31.145Z,24.80
2019-02-04T02:43:31.152Z,25.90
2019-02-04T02:44:31.209Z,26.50
2019-02-04T02:45:31.179Z,25.20
2019-02-04T02:46:31.175Z,26.20
2019-02-04T02:47:38.219Z,28.00
2019-02-04T02:48:31.200Z,24.40
2019-02-04T02:49:31.196Z,24.00
2019-02-04T02:50:31.214Z,24.50
2019-02-04T02:51:31.212Z,23.00
2019-02-04T02:52:31.218Z,24.90
2019-02-04T02:53:31.228Z,27.00
2019-02-04T02:54:31.236Z,27.40
2019-02-04T02:55:31.242Z,26.60
2019-02-04T02:56:31.251Z,27.50
2019-02-04T02:57:31.267Z,30.70
2019-02-04T02:58:31.269Z,26.70
2019-02-04T02:59:31.371Z,24.10
2019-02-04T03:00:31.301Z,25.50
2019-02-04T03:01:31.292Z,25.10
2019-02-04T03:02:31.344Z,25.20
2019-02-04T03:03:31.313Z,26.20
2019-02-04T03:04:31.316Z,30.10
2019-02-04T03:05:31.324Z,28.90
2019-02-04T03:06:31.331Z,25.70
2019-02-04T03:07:31.342Z,29.70
2019-02-04T03:08:31.352Z,25.60
2019-02-04T03:09:31.359Z,29.10
2019-02-04T03:10:31.376Z,27.00
2019-02-04T03:11:31.382Z,24.60
2019-02-04T03:12:31.383Z,25.90
2019-02-04T03:13:31.408Z,26.40
2019-02-04T03:14:31.399Z,26.60
2019-02-04T03:15:31.406Z,27.80
2019-02-04T03:16:31.420Z,30.10
2019-02-04T03:17:31.421Z,29.20
2019-02-04T03:18:31.434Z,29.10
2019-02-04T03:19:31.437Z,28.00
2019-02-04T03:20:31.449Z,33.90
2019-02-04T03:21:33.051Z,32.90
2019-02-04T03:22:31.466Z,29.90
2019-02-04T03:23:31.473Z,27.70
2019-02-04T03:24:31.481Z,29.40
2019-02-04T03:25:31.498Z,27.60
2019-02-04T03:26:31.528Z,30.00
2019-02-04T03:27:31.513Z,30.50
2019-02-04T03:28:31.524Z,29.40
2019-02-04T03:29:31.532Z,31.80
2019-02-04T03:30:31.534Z,33.50
2019-02-04T03:31:31.607Z,28.50
2019-02-04T03:32:31.631Z,31.00
2019-02-04T03:33:31.788Z,30.80
2019-02-04T03:34:31.844Z,31.50
2019-02-04T03:35:32.059Z,29.80
2019-02-04T03:36:32.151Z,30.70
2019-02-04T03:37:32.367Z,27.90
2019-02-04T03:38:32.070Z,29.90
2019-02-04T03:39:32.360Z,31.10
2019-02-04T03:40:32.052Z,28.20
2019-02-04T03:41:32.296Z,29.70
2019-02-04T03:42:32.224Z,31.50
2019-02-04T03:43:32.200Z,30.60
2019-02-04T03:44:31.856Z,30.50
2019-02-04T03:45:31.873Z,30.50
2019-02-04T03:46:31.912Z,33.00
2019-02-04T03:47:31.980Z,31.40
2019-02-04T03:48:31.977Z,33.80
2019-02-04T03:49:31.990Z,30.00
2019-02-04T03:50:31.905Z,30.50
2019-02-04T03:51:31.910Z,30.70
2019-02-04T03:52:31.954Z,31.30
2019-02-04T03:53:32.229Z,35.10
2019-02-04T03:54:32.033Z,37.00
2019-02-04T03:55:32.338Z,30.60
2019-02-04T03:56:32.042Z,30.20
2019-02-04T03:57:32.151Z,32.60
2019-02-04T03:58:31.989Z,33.50
2019-02-04T03:59:31.941Z,30.40
2019-02-04T04:00:31.977Z,31.60
2019-02-04T04:01:31.947Z,32.50
2019-02-04T04:02:31.948Z,32.00
2019-02-04T04:03:31.907Z,35.10
2019-02-04T04:04:31.954Z,30.30
2019-02-04T04:05:32.220Z,31.00
2019-02-04T04:06:32.715Z,31.40
2019-02-04T04:07:32.115Z,35.50
2019-02-04T04:08:31.996Z,30.70
2019-02-04T04:09:32.211Z,29.10
2019-02-04T04:10:32.285Z,34.40
2019-02-04T04:11:31.924Z,33.20
2019-02-04T04:12:31.929Z,31.70
2019-02-04T04:13:32.133Z,33.00
2019-02-04T04:14:32.000Z,32.70
2019-02-04T04:15:31.953Z,32.70
2019-02-04T04:16:32.458Z,31.30
2019-02-04T04:17:32.407Z,30.30
2019-02-04T04:18:32.412Z,35.60
2019-02-04T04:19:32.323Z,30.80
2019-02-04T04:20:32.345Z,33.30
2019-02-04T04:22:32.748Z,30.30
2019-02-04T04:23:32.432Z,33.80
2019-02-04T04:24:32.885Z,30.20
2019-02-04T04:25:32.422Z,30.40
2019-02-04T04:26:32.430Z,30.30
2019-02-04T04:27:32.112Z,28.60
2019-02-04T04:28:32.491Z,27.80
2019-02-04T04:29:32.255Z,29.80
2019-02-04T04:30:32.076Z,30.40
2019-02-04T04:31:32.030Z,30.20
2019-02-04T04:32:32.031Z,29.20
2019-02-04T04:33:32.154Z,34.20
2019-02-04T04:34:32.548Z,30.10
2019-02-04T04:35:32.468Z,31.60
2019-02-04T04:36:32.181Z,31.30
2019-02-04T04:37:32.392Z,29.40
2019-02-04T04:38:32.506Z,29.90
2019-02-04T04:39:33.517Z,28.80
2019-02-04T04:40:33.734Z,35.00
2019-02-04T04:41:32.416Z,29.50
2019-02-04T04:42:32.408Z,30.10
2019-02-04T04:43:32.446Z,31.40
2019-02-04T04:44:32.163Z,31.20
2019-02-04T04:45:32.126Z,30.60
2019-02-04T04:46:32.129Z,31.30
2019-02-04T04:47:32.398Z,29.20
2019-02-04T04:48:32.441Z,28.90
2019-02-04T04:49:32.403Z,29.50
2019-02-04T04:50:32.377Z,30.90
2019-02-04T04:51:32.329Z,30.40
2019-02-04T04:52:32.341Z,33.40
2019-02-04T04:53:32.338Z,36.30
2019-02-04T04:54:32.202Z,32.10
2019-02-04T04:55:32.217Z,33.10
2019-02-04T04:56:32.223Z,32.80
2019-02-04T04:57:32.230Z,32.20
2019-02-04T04:58:32.336Z,32.60
2019-02-04T04:59:32.245Z,32.50
2019-02-04T05:00:32.390Z,31.60
2019-02-04T05:01:32.502Z,36.80
2019-02-04T05:02:32.516Z,33.10
2019-02-04T05:03:32.635Z,32.60
2019-02-04T05:04:32.422Z,31.60
2019-02-04T05:05:32.428Z,33.70
2019-02-04T05:06:32.583Z,32.20
2019-02-04T05:07:32.967Z,35.50
2019-02-04T05:08:32.360Z,33.90
2019-02-04T05:09:32.544Z,35.70
2019-02-04T05:10:32.333Z,32.90
2019-02-04T05:11:32.329Z,34.70
2019-02-04T05:12:32.337Z,36.70
2019-02-04T05:13:32.359Z,36.40
2019-02-04T05:14:32.358Z,35.10
2019-02-04T05:15:32.360Z,35.00
2019-02-04T05:16:32.386Z,36.50
2019-02-04T05:17:33.244Z,37.20
2019-02-04T05:19:32.841Z,37.80
2019-02-04T05:20:32.410Z,35.20
2019-02-04T05:21:32.566Z,36.60
2019-02-04T05:22:32.430Z,36.20
2019-02-04T05:23:32.501Z,34.70
2019-02-04T05:24:32.639Z,35.00
2019-02-04T05:25:32.494Z,36.40
2019-02-04T05:26:32.452Z,36.40
2019-02-04T05:27:32.464Z,40.10
2019-02-04T05:28:32.471Z,37.00
2019-02-04T05:29:32.567Z,40.20
2019-02-04T05:30:32.504Z,38.40
2019-02-04T05:31:32.601Z,41.00
2019-02-04T05:32:32.507Z,34.70
2019-02-04T05:33:32.519Z,38.30
2019-02-04T05:34:32.879Z,39.20
2019-02-04T05:35:32.619Z,37.10
2019-02-04T05:36:33.222Z,35.80
2019-02-04T05:37:32.959Z,36.10
2019-02-04T05:38:32.621Z,38.00
2019-02-04T05:39:32.549Z,36.40
2019-02-04T05:40:32.652Z,43.60
2019-02-04T05:41:33.452Z,41.10
2019-02-04T05:42:34.560Z,38.00
2019-02-04T05:43:32.771Z,36.40
2019-02-04T05:44:32.794Z,35.60
2019-02-04T05:45:32.650Z,38.70
2019-02-04T05:46:33.117Z,38.30
2019-02-04T05:47:32.694Z,35.40
2019-02-04T05:48:32.646Z,39.70
2019-02-04T05:49:32.650Z,38.00
2019-02-04T05:50:32.661Z,37.10
2019-02-04T05:51:32.707Z,40.00
2019-02-04T05:52:32.651Z,38.60
2019-02-04T05:53:32.680Z,41.90
2019-02-04T05:54:32.686Z,39.30
2019-02-04T05:55:32.692Z,37.80
2019-02-04T05:56:32.693Z,41.00
2019-02-04T05:57:32.715Z,37.80
2019-02-04T05:58:33.198Z,42.90
2019-02-04T05:59:32.719Z,43.70
2019-02-04T06:00:32.717Z,41.20
2019-02-04T06:01:32.880Z,36.80
2019-02-04T06:02:32.771Z,39.20
2019-02-04T06:03:33.041Z,42.10
2019-02-04T06:04:32.866Z,45.70
2019-02-04T06:05:33.426Z,40.00
2019-02-04T06:06:32.783Z,43.50
2019-02-04T06:08:32.780Z,41.00
2019-02-04T06:09:32.792Z,39.90
2019-02-04T06:10:33.245Z,41.70
2019-02-04T06:11:32.818Z,41.00
2019-02-04T06:13:33.013Z,38.00
2019-02-04T06:14:33.121Z,40.30
2019-02-04T06:15:32.841Z,42.20
2019-02-04T06:16:32.889Z,38.00
2019-02-04T06:17:32.852Z,43.90
2019-02-04T06:18:32.899Z,44.00
2019-02-04T06:19:33.581Z,42.10
2019-02-04T06:20:32.884Z,43.30
2019-02-04T06:21:32.895Z,45.30
2019-02-04T06:23:32.912Z,45.20
2019-02-04T06:24:32.924Z,40.30
2019-02-04T06:25:32.912Z,45.90
2019-02-04T06:26:32.955Z,41.60
2019-02-04T06:27:32.937Z,41.90
2019-02-04T06:29:32.973Z,38.40
2019-02-04T06:30:32.972Z,42.00
2019-02-04T06:31:32.974Z,42.20
2019-02-04T06:32:34.666Z,42.00
2019-02-04T06:33:33.324Z,41.50
2019-02-04T06:34:33.130Z,38.00
2019-02-04T06:36:33.003Z,39.00
2019-02-04T06:37:33.009Z,45.20
2019-02-04T06:38:33.017Z,38.70
2019-02-04T06:39:33.028Z,39.80
2019-02-04T06:40:34.184Z,41.80
2019-02-04T06:41:33.627Z,38.80
2019-02-04T06:42:33.935Z,38.10
2019-02-04T06:43:33.052Z,38.10
2019-02-04T06:44:33.061Z,41.60
2019-02-04T06:45:33.073Z,40.40
2019-02-04T06:46:33.096Z,39.50
2019-02-04T06:47:33.097Z,38.40
2019-02-04T06:48:33.108Z,41.90
2019-02-04T06:49:33.107Z,39.60
2019-02-04T06:50:33.114Z,45.00
2019-02-04T06:51:33.125Z,40.20
2019-02-04T06:52:33.132Z,40.60
2019-02-04T06:53:33.144Z,41.00
2019-02-04T06:54:33.144Z,43.50
2019-02-04T06:55:33.158Z,43.60
2019-02-04T06:56:35.858Z,42.40
2019-02-04T06:57:33.171Z,44.90
2019-02-04T06:58:33.186Z,38.20
2019-02-04T06:59:33.186Z,40.20
2019-02-04T07:00:33.205Z,40.20
2019-02-04T07:01:33.212Z,40.70
2019-02-04T07:02:33.206Z,42.60
2019-02-04T07:03:33.228Z,43.20
2019-02-04T07:04:33.225Z,39.50
2019-02-04T07:05:43.383Z,43.50
2019-02-04T07:06:33.241Z,42.10
2019-02-04T07:07:33.260Z,40.40
2019-02-04T07:08:33.253Z,40.60
2019-02-04T07:09:33.264Z,42.10
2019-02-04T07:10:33.295Z,39.30
2019-02-04T07:11:33.290Z,35.80
2019-02-04T07:12:33.287Z,40.40
2019-02-04T07:13:33.303Z,41.00
2019-02-04T07:14:33.303Z,40.40
2019-02-04T07:15:33.309Z,36.90
2019-02-04T07:16:33.320Z,40.50
2019-02-04T07:17:33.690Z,41.50
2019-02-04T07:18:33.335Z,39.50
2019-02-04T07:19:33.739Z,36.80
2019-02-04T07:20:33.540Z,36.80
2019-02-04T07:21:33.357Z,38.30
2019-02-04T07:22:33.389Z,36.30
2019-02-04T07:23:34.057Z,33.30
2019-02-04T07:24:42.490Z,32.50
2019-02-04T07:25:33.400Z,33.60
2019-02-04T07:26:33.405Z,32.60
2019-02-04T07:27:33.511Z,32.80
2019-02-04T07:28:33.428Z,32.60
2019-02-04T07:29:33.424Z,32.30
2019-02-04T07:30:33.562Z,31.80
2019-02-04T07:31:33.456Z,34.40
2019-02-04T07:32:33.457Z,34.30
2019-02-04T07:33:33.459Z,32.70
2019-02-04T07:34:33.463Z,29.90
2019-02-04T07:35:33.483Z,33.20
2019-02-04T07:36:33.490Z,31.60
2019-02-04T07:37:33.536Z,29.70
2019-02-04T07:38:33.516Z,29.10
2019-02-04T07:39:33.505Z,31.70
2019-02-04T07:40:33.519Z,31.20
2019-02-04T07:41:33.638Z,29.50
2019-02-04T07:42:33.588Z,30.00
2019-02-04T07:43:33.544Z,34.40
2019-02-04T07:44:33.551Z,29.50
2019-02-04T07:45:33.562Z,31.60
2019-02-04T07:46:33.560Z,33.00
2019-02-04T07:47:33.570Z,28.00
2019-02-04T07:48:33.576Z,33.00
2019-02-04T07:49:35.247Z,27.60
2019-02-04T07:50:33.596Z,31.00
2019-02-04T07:51:33.614Z,29.60
2019-02-04T07:52:33.611Z,30.90
2019-02-04T07:53:33.625Z,30.40
2019-02-04T07:54:33.628Z,30.70
2019-02-04T07:55:33.660Z,26.30
2019-02-04T07:56:33.658Z,27.30
2019-02-04T07:57:33.655Z,28.50
2019-02-04T07:58:33.677Z,28.40
2019-02-04T07:59:33.676Z,27.40
2019-02-04T08:00:33.686Z,29.10
2019-02-04T08:01:33.688Z,25.70
2019-02-04T08:02:33.696Z,27.80
2019-02-04T08:03:33.702Z,26.00
2019-02-04T08:04:33.709Z,25.80
2019-02-04T08:05:33.717Z,28.50
2019-02-04T08:06:33.734Z,28.30
2019-02-04T08:07:33.755Z,28.70
2019-02-04T08:08:34.065Z,27.50
2019-02-04T08:09:33.753Z,25.50
2019-02-04T08:10:33.827Z,27.10
2019-02-04T08:11:33.769Z,28.30
2019-02-04T08:12:33.932Z,26.80
2019-02-04T08:13:34.210Z,23.50
2019-02-04T08:14:33.795Z,24.50
2019-02-04T08:15:34.543Z,26.00
2019-02-04T08:16:33.821Z,23.10
2019-02-04T08:17:34.049Z,22.70
2019-02-04T08:18:33.833Z,22.20
2019-02-04T08:19:33.973Z,22.30
2019-02-04T08:20:33.853Z,23.30
2019-02-04T08:21:33.856Z,22.40
2019-02-04T08:22:33.861Z,24.00
2019-02-04T08:23:34.079Z,24.40
2019-02-04T08:24:33.884Z,21.80
2019-02-04T08:25:33.899Z,22.50
2019-02-04T08:26:33.949Z,23.70
2019-02-04T08:27:34.471Z,22.90
2019-02-04T08:28:33.931Z,22.10
2019-02-04T08:29:33.920Z,21.40
2019-02-04T08:30:33.932Z,21.00
2019-02-04T08:31:34.014Z,21.80
2019-02-04T08:32:34.139Z,21.50
2019-02-04T08:33:33.972Z,22.30
2019-02-04T08:34:35.114Z,22.90
2019-02-04T08:35:33.995Z,23.20
2019-02-04T08:36:43.498Z,19.80
2019-02-04T08:37:34.174Z,20.90
2019-02-04T08:38:34.003Z,19.30
2019-02-04T08:40:34.129Z,19.80
2019-02-04T08:41:34.458Z,19.70
2019-02-04T08:42:35.457Z,20.50
2019-02-04T08:44:34.409Z,20.50
2019-02-04T08:45:34.301Z,18.80
2019-02-04T08:46:34.404Z,19.00
2019-02-04T08:47:34.685Z,20.20
2019-02-04T08:48:34.087Z,22.20
2019-02-04T08:49:34.124Z,19.80
2019-02-04T08:50:34.120Z,18.70
2019-02-04T08:51:34.702Z,18.40
2019-02-04T08:52:34.124Z,18.60
2019-02-04T08:53:34.131Z,19.90
2019-02-04T08:54:34.137Z,18.00
2019-02-04T08:56:34.241Z,17.60
2019-02-04T08:57:34.282Z,17.80
2019-02-04T08:58:34.280Z,17.40
2019-02-04T08:59:34.240Z,20.70
2019-02-04T09:00:34.199Z,18.70
2019-02-04T09:01:34.209Z,16.90
2019-02-04T09:02:34.209Z,19.20
2019-02-04T09:03:34.224Z,16.50
2019-02-04T09:04:37.013Z,20.00
2019-02-04T09:05:34.256Z,18.40
2019-02-04T09:06:34.245Z,16.90
2019-02-04T09:07:34.252Z,19.50
2019-02-04T09:08:34.291Z,16.20
2019-02-04T09:09:34.268Z,17.00
2019-02-04T09:10:34.293Z,14.80
2019-02-04T09:11:34.291Z,17.40
2019-02-04T09:12:34.319Z,18.20
2019-02-04T09:13:34.325Z,18.50
2019-02-04T09:14:34.321Z,15.90
2019-02-04T09:15:34.434Z,16.00
2019-02-04T09:16:34.333Z,15.50
2019-02-04T09:21:34.600Z,16.40
2019-02-04T09:22:34.424Z,13.20
2019-02-04T09:23:34.405Z,14.00
2019-02-04T09:24:34.420Z,19.30
2019-02-04T09:25:34.439Z,15.00
2019-02-04T09:26:34.470Z,14.20
2019-02-04T09:27:34.445Z,13.50
2019-02-04T09:28:34.439Z,14.90
2019-02-04T09:29:34.451Z,13.80
2019-02-04T09:30:34.464Z,14.10
2019-02-04T09:31:34.474Z,14.50
2019-02-04T09:32:34.477Z,14.90
2019-02-04T09:33:34.490Z,13.10
2019-02-04T09:34:34.510Z,13.10
2019-02-04T09:35:34.516Z,13.20
2019-02-04T09:36:34.767Z,11.80
2019-02-04T09:37:34.530Z,15.40
2019-02-04T09:38:34.552Z,15.00
2019-02-04T09:39:34.545Z,15.90
2019-02-04T09:40:34.556Z,13.10
2019-02-04T09:41:34.708Z,13.10
2019-02-04T09:42:34.572Z,12.80
2019-02-04T09:43:34.577Z,13.30
2019-02-04T09:44:34.601Z,14.00
2019-02-04T09:45:34.918Z,13.60
2019-02-04T09:47:35.279Z,11.50
2019-02-04T09:49:36.003Z,12.80
2019-02-04T09:51:35.863Z,11.70
2019-02-04T09:52:36.726Z,12.20
2019-02-04T09:53:34.840Z,12.80
2019-02-04T09:54:34.824Z,13.20
2019-02-04T09:55:34.697Z,12.10
2019-02-04T09:56:34.702Z,19.20
2019-02-04T09:57:34.716Z,12.80
2019-02-04T09:58:35.159Z,10.70
2019-02-04T09:59:34.747Z,12.30
2019-02-04T10:00:34.778Z,13.70
2019-02-04T10:01:35.009Z,12.10
2019-02-04T10:02:34.769Z,11.60
2019-02-04T10:03:34.772Z,11.00
2019-02-04T10:04:34.782Z,13.10
2019-02-04T10:05:34.817Z,11.80
2019-02-04T10:06:34.804Z,12.90
2019-02-04T10:07:34.809Z,11.40
2019-02-04T10:08:34.825Z,12.30
2019-02-04T10:09:34.834Z,12.80
2019-02-04T10:10:34.842Z,11.90
2019-02-04T10:11:34.847Z,11.70
2019-02-04T10:12:35.502Z,11.30
2019-02-04T10:13:35.152Z,11.30
2019-02-04T10:14:35.127Z,10.80
2019-02-04T10:15:35.570Z,11.80
2019-02-04T10:16:35.119Z,10.60
2019-02-04T10:17:34.931Z,10.70
2019-02-04T10:18:37.858Z,13.50
2019-02-04T10:19:34.985Z,10.40
2019-02-04T10:20:35.006Z,13.20
2019-02-04T10:21:34.960Z,12.40
2019-02-04T10:22:35.026Z,11.20
2019-02-04T10:23:35.033Z,11.30
2019-02-04T10:24:35.008Z,11.80
2019-02-04T10:26:35.683Z,12.40
2019-02-04T10:28:35.542Z,12.50
2019-02-04T10:29:35.022Z,12.10
2019-02-04T10:30:35.427Z,11.40
2019-02-04T10:31:35.067Z,12.00
2019-02-04T10:32:35.177Z,11.60
2019-02-04T10:33:35.104Z,11.30
2019-02-04T10:34:36.331Z,10.60
2019-02-04T10:35:35.151Z,10.90
2019-02-04T10:37:35.198Z,13.10
2019-02-04T10:38:35.160Z,11.90
2019-02-04T10:39:36.337Z,13.30
2019-02-04T10:40:35.184Z,10.90
2019-02-04T10:41:35.668Z,12.30
2019-02-04T10:43:35.162Z,12.40
2019-02-04T10:44:35.728Z,12.20
2019-02-04T10:46:35.232Z,11.10
2019-02-04T10:48:35.218Z,12.80
2019-02-04T10:49:35.248Z,11.20
2019-02-04T10:50:45.841Z,10.30
2019-02-04T10:51:35.274Z,11.40
2019-02-04T10:52:35.909Z,10.50
2019-02-04T10:54:35.283Z,12.10
2019-02-04T10:55:35.328Z,10.90
2019-02-04T10:56:37.050Z,10.40
2019-02-04T10:57:40.569Z,10.80
2019-02-04T10:58:35.314Z,10.50
2019-02-04T10:59:35.344Z,9.90
2019-02-04T11:00:35.334Z,11.10
2019-02-04T11:03:35.424Z,10.30
2019-02-04T11:04:35.483Z,10.40
2019-02-04T11:05:35.514Z,9.10
2019-02-04T11:06:35.520Z,10.80
2019-02-04T11:08:35.413Z,11.70
2019-02-04T11:09:35.715Z,11.70
2019-02-04T11:10:35.628Z,10.80
2019-02-04T11:13:35.669Z,10.50
2019-02-04T11:14:36.056Z,12.10
2019-02-04T11:15:35.548Z,10.20
2019-02-04T11:16:35.523Z,10.00
2019-02-04T11:17:35.522Z,9.60
2019-02-04T11:18:35.562Z,11.00
2019-02-04T11:19:35.555Z,10.00
2019-02-04T11:20:35.622Z,8.70
2019-02-04T11:21:35.677Z,10.20
2019-02-04T11:22:35.583Z,9.70
2019-02-04T11:23:35.623Z,8.70
2019-02-04T11:24:35.737Z,11.20
2019-02-04T11:25:35.599Z,9.90
2019-02-04T11:26:35.609Z,11.10
2019-02-04T11:27:36.276Z,9.80
2019-02-04T11:28:35.666Z,10.30
2019-02-04T11:30:35.705Z,10.40
2019-02-04T11:31:35.688Z,11.00
2019-02-04T11:32:36.095Z,10.30
2019-02-04T11:34:35.684Z,9.30
2019-02-04T11:35:35.751Z,9.50
2019-02-04T11:36:36.349Z,8.60
2019-02-04T11:37:35.751Z,11.10
2019-02-04T11:39:35.757Z,10.20
2019-02-04T11:40:35.774Z,10.80
2019-02-04T11:41:37.258Z,10.10
2019-02-04T11:42:36.742Z,9.70
2019-02-04T11:43:36.024Z,10.50
2019-02-04T11:44:35.867Z,11.30
2019-02-04T11:45:35.850Z,12.30
2019-02-04T11:46:35.895Z,9.20
2019-02-04T11:47:35.835Z,12.70
2019-02-04T11:48:35.915Z,9.30
2019-02-04T11:49:35.846Z,10.40
2019-02-04T11:50:35.929Z,11.70
2019-02-04T11:51:35.879Z,9.80
2019-02-04T11:52:35.965Z,10.50
2019-02-04T11:54:35.990Z,10.30
2019-02-04T11:55:37.866Z,10.60
2019-02-04T11:56:35.915Z,11.60
2019-02-04T11:57:35.945Z,11.60
2019-02-04T11:59:36.243Z,10.10
2019-02-04T12:01:36.362Z,10.70
2019-02-04T12:02:36.198Z,11.20
2019-02-04T12:03:36.078Z,9.90
2019-02-04T12:04:36.018Z,11.40
2019-02-04T12:05:37.091Z,9.80
2019-02-04T12:06:36.035Z,10.70
2019-02-04T12:07:36.085Z,10.40
2019-02-04T12:08:36.272Z,10.00
2019-02-04T12:09:36.063Z,10.30
2019-02-04T12:10:36.123Z,11.70
2019-02-04T12:11:36.091Z,8.20
2019-02-04T12:12:36.085Z,10.10
2019-02-04T12:14:36.140Z,13.40
2019-02-04T12:15:36.230Z,11.40
2019-02-04T12:16:36.620Z,8.70
2019-02-04T12:17:36.161Z,11.80
2019-02-04T12:19:36.179Z,10.00
2019-02-04T12:20:36.168Z,11.30
2019-02-04T12:21:36.183Z,9.80
2019-02-04T12:22:36.190Z,10.30
2019-02-04T12:23:36.223Z,10.30
2019-02-04T12:24:36.396Z,11.00
2019-02-04T12:25:36.295Z,10.70
2019-02-04T12:26:36.812Z,10.20
2019-02-04T12:27:36.263Z,10.90
2019-02-04T12:28:37.794Z,9.30
2019-02-04T12:29:37.744Z,10.50
2019-02-04T12:30:37.862Z,10.20
2019-02-04T12:33:36.389Z,9.80
2019-02-04T12:34:36.487Z,12.40
2019-02-04T12:35:37.105Z,9.10
2019-02-04T12:37:36.610Z,10.00
2019-02-04T12:38:36.424Z,8.80
2019-02-04T12:40:37.157Z,11.30
2019-02-04T12:41:36.560Z,9.10
2019-02-04T12:42:37.074Z,10.10
2019-02-04T12:43:36.414Z,11.40
2019-02-04T12:44:36.430Z,11.10
2019-02-04T12:45:36.435Z,10.90
2019-02-04T12:46:36.449Z,10.30
2019-02-04T12:47:36.496Z,10.20
2019-02-04T12:48:36.504Z,10.00
2019-02-04T12:49:36.484Z,10.70
2019-02-04T12:52:37.506Z,10.00
2019-02-04T12:53:36.519Z,9.70
2019-02-04T12:54:36.552Z,9.10
2019-02-04T12:55:36.752Z,9.60
2019-02-04T12:56:36.604Z,11.10
2019-02-04T12:57:37.754Z,10.70
2019-02-04T12:58:37.784Z,8.70
2019-02-04T12:59:36.613Z,9.60
2019-02-04T13:00:36.606Z,10.50
2019-02-04T13:01:36.640Z,9.90
2019-02-04T13:02:36.638Z,10.30
2019-02-04T13:03:37.537Z,8.00
2019-02-04T13:04:36.642Z,9.20
2019-02-04T13:05:37.211Z,9.20
2019-02-04T13:06:36.665Z,10.00
2019-02-04T13:07:36.676Z,9.80
2019-02-04T13:09:37.332Z,9.20
2019-02-04T13:10:36.822Z,10.40
2019-02-04T13:11:36.775Z,10.70
2019-02-04T13:12:36.820Z,12.00
2019-02-04T13:13:36.736Z,10.30
2019-02-04T13:14:36.873Z,10.50
2019-02-04T13:15:37.252Z,9.80
2019-02-04T13:16:36.796Z,11.80
2019-02-04T13:17:36.785Z,9.90
2019-02-04T13:18:36.808Z,8.50
2019-02-04T13:19:36.906Z,9.30
2019-02-04T13:20:36.876Z,10.50
2019-02-04T13:21:45.093Z,8.90
2019-02-04T13:22:37.015Z,10.60
2019-02-04T13:23:36.863Z,9.50
2019-02-04T13:24:36.901Z,8.80
2019-02-04T13:25:36.929Z,9.30
2019-02-04T13:26:36.946Z,10.00
2019-02-04T13:27:36.895Z,9.30
2019-02-04T13:28:36.916Z,12.30
2019-02-04T13:29:36.928Z,10.60
2019-02-04T13:30:36.932Z,8.90
2019-02-04T13:31:36.950Z,11.60
2019-02-04T13:32:36.959Z,7.90
2019-02-04T13:33:36.984Z,11.00
2019-02-04T13:34:36.971Z,6.90
2019-02-04T13:35:36.975Z,8.80
2019-02-04T13:36:37.014Z,11.20
2019-02-04T13:37:37.004Z,9.60
2019-02-04T13:39:38.638Z,7.80
2019-02-04T13:40:37.181Z,10.50